createdAt,value
2019-01-30T00:00:10.047Z,5.67
2019-01-30T00:02:36.197Z,6.10
2019-01-30T00:05:05.127Z,5.43
2019-01-30T00:07:32.266Z,6.10
2019-01-30T00:09:58.659Z,6.30
2019-01-30T00:12:25.024Z,6.67
2019-01-30T00:14:51.166Z,6.20
2019-01-30T00:17:17.303Z,5.90
2019-01-30T00:19:43.482Z,6.20
2019-01-30T00:22:09.634Z,6.20
2019-01-30T00:24:35.793Z,5.57
2019-01-30T00:27:01.948Z,5.67
2019-01-30T00:29:28.318Z,6.10
2019-01-30T00:31:54.475Z,6.93
2019-01-30T00:34:20.612Z,5.70
2019-01-30T00:36:46.762Z,6.27
2019-01-30T00:39:12.899Z,5.83
2019-01-30T00:41:39.042Z,6.37
2019-01-30T00:44:05.191Z,6.43
2019-01-30T00:46:31.570Z,6.50
2019-01-30T00:48:57.695Z,6.73
2019-01-30T00:51:23.897Z,6.73
2019-01-30T00:53:50.035Z,7.17
2019-01-30T00:56:16.412Z,7.20
2019-01-30T00:58:42.791Z,6.43
2019-01-30T01:01:08.948Z,7.00
2019-01-30T01:03:35.090Z,6.57
2019-01-30T01:06:01.338Z,6.47
2019-01-30T01:08:27.491Z,6.57
2019-01-30T01:10:53.636Z,7.50
2019-01-30T01:13:20.015Z,7.87
2019-01-30T01:15:46.158Z,7.07
2019-01-30T01:18:12.308Z,6.67
2019-01-30T01:20:38.696Z,5.83
2019-01-30T01:23:04.846Z,6.03
2019-01-30T01:25:30.979Z,6.33
2019-01-30T01:27:57.235Z,6.30
2019-01-30T01:30:25.698Z,6.07
2019-01-30T01:32:52.118Z,5.97
2019-01-30T01:35:18.262Z,5.83
2019-01-30T01:37:44.402Z,6.03
2019-01-30T01:40:12.544Z,5.60
2019-01-30T01:42:38.706Z,5.57
2019-01-30T01:45:08.438Z,6.80
2019-01-30T01:47:34.599Z,6.60
2019-01-30T01:50:00.727Z,6.53
2019-01-30T01:52:26.885Z,6.23
2019-01-30T01:54:53.017Z,5.93
2019-01-30T01:57:19.163Z,5.63
2019-01-30T01:59:45.302Z,6.47
2019-01-30T02:02:11.670Z,6.30
2019-01-30T02:04:37.825Z,6.33
2019-01-30T02:07:03.961Z,6.07
2019-01-30T02:09:30.117Z,5.53
2019-01-30T02:11:56.503Z,6.60
2019-01-30T02:14:22.651Z,5.73
2019-01-30T02:16:48.794Z,6.40
2019-01-30T02:19:14.947Z,6.60
2019-01-30T02:21:41.073Z,6.50
2019-01-30T02:24:07.236Z,6.93
2019-01-30T02:26:33.353Z,7.07
2019-01-30T02:28:59.734Z,6.73
2019-01-30T02:31:26.098Z,7.10
2019-01-30T02:33:52.503Z,7.13
2019-01-30T02:36:18.646Z,7.10
2019-01-30T02:38:44.782Z,6.57
2019-01-30T02:41:10.927Z,7.70
2019-01-30T02:43:37.351Z,6.67
2019-01-30T02:46:03.494Z,7.27
2019-01-30T02:48:29.891Z,6.20
2019-01-30T02:50:56.288Z,7.97
2019-01-30T02:53:22.529Z,7.07
2019-01-30T02:55:48.687Z,6.97
2019-01-30T02:58:15.826Z,7.87
2019-01-30T03:00:42.206Z,7.77
2019-01-30T03:03:08.369Z,8.63
2019-01-30T03:05:34.539Z,7.87
2019-01-30T03:08:00.673Z,7.10
2019-01-30T03:10:26.864Z,7.40
2019-01-30T03:12:53.019Z,7.60
2019-01-30T03:15:19.374Z,7.53
2019-01-30T03:17:45.562Z,8.33
2019-01-30T03:20:16.341Z,8.73
2019-01-30T03:22:42.743Z,7.83
2019-01-30T03:25:11.407Z,7.57
2019-01-30T03:27:37.546Z,8.43
2019-01-30T03:30:07.508Z,9.70
2019-01-30T03:32:33.643Z,8.10
2019-01-30T03:34:59.786Z,8.43
2019-01-30T03:37:25.946Z,8.33
2019-01-30T03:39:52.363Z,8.07
2019-01-30T03:42:18.505Z,8.80
2019-01-30T03:44:45.646Z,8.63
2019-01-30T03:47:11.875Z,9.13
2019-01-30T03:49:38.013Z,9.03
2019-01-30T03:52:04.164Z,9.00
2019-01-30T03:54:30.465Z,8.83
2019-01-30T03:56:56.610Z,8.73
2019-01-30T03:59:22.756Z,10.20
2019-01-30T04:01:48.898Z,9.40
2019-01-30T04:04:15.026Z,9.63
2019-01-30T04:06:42.178Z,10.40
2019-01-30T04:09:08.319Z,10.23
2019-01-30T04:11:34.469Z,10.70
2019-01-30T04:14:00.855Z,10.00
2019-01-30T04:16:27.057Z,9.70
2019-01-30T04:18:53.207Z,9.50
2019-01-30T04:21:19.358Z,9.27
2019-01-30T04:23:45.505Z,9.67
2019-01-30T04:26:11.658Z,9.67
2019-01-30T04:28:37.787Z,9.93
2019-01-30T04:31:03.941Z,10.40
2019-01-30T04:33:30.348Z,9.70
2019-01-30T04:35:56.494Z,9.37
2019-01-30T04:38:22.853Z,9.07
2019-01-30T04:40:49.014Z,9.57
2019-01-30T04:43:15.195Z,9.17
2019-01-30T04:45:41.339Z,8.50
2019-01-30T04:48:07.475Z,8.93
2019-01-30T04:50:33.626Z,9.27
2019-01-30T04:52:59.763Z,9.10
2019-01-30T04:55:25.943Z,8.67
2019-01-30T04:57:52.095Z,7.53
2019-01-30T05:00:20.807Z,8.40
2019-01-30T05:02:47.243Z,9.57
2019-01-30T05:05:13.603Z,9.03
2019-01-30T05:07:39.776Z,9.53
2019-01-30T05:10:08.245Z,9.40
2019-01-30T05:12:34.402Z,8.27
2019-01-30T05:15:00.702Z,8.20
2019-01-30T05:17:26.904Z,8.43
2019-01-30T05:19:53.275Z,8.47
2019-01-30T05:22:19.426Z,8.97
2019-01-30T05:24:45.563Z,9.47
2019-01-30T05:27:11.981Z,8.87
2019-01-30T05:29:39.119Z,8.97
2019-01-30T05:32:05.287Z,8.53
2019-01-30T05:34:31.686Z,8.20
2019-01-30T05:36:57.842Z,8.13
2019-01-30T05:39:23.983Z,8.43
2019-01-30T05:41:50.439Z,9.27
2019-01-30T05:44:16.576Z,8.47
2019-01-30T05:46:42.738Z,9.13
2019-01-30T05:49:08.890Z,8.83
2019-01-30T05:51:35.067Z,8.30
2019-01-30T05:54:01.211Z,8.97
2019-01-30T05:56:27.405Z,9.43
2019-01-30T05:58:53.552Z,9.30
2019-01-30T06:01:19.689Z,9.80
2019-01-30T06:03:45.832Z,8.70
2019-01-30T06:06:12.004Z,8.93
2019-01-30T06:08:38.139Z,9.17
2019-01-30T06:11:04.274Z,9.57
2019-01-30T06:13:30.694Z,9.27
2019-01-30T06:15:56.864Z,9.90
2019-01-30T06:18:23.031Z,9.80
2019-01-30T06:20:49.190Z,10.77
2019-01-30T06:23:15.464Z,9.70
2019-01-30T06:25:41.623Z,9.83
2019-01-30T06:28:07.795Z,10.17
2019-01-30T06:30:34.187Z,10.07
2019-01-30T06:33:00.330Z,9.90
2019-01-30T06:35:26.517Z,10.40
2019-01-30T06:37:52.654Z,8.80
2019-01-30T06:40:27.015Z,10.20
2019-01-30T06:42:53.160Z,9.07
2019-01-30T06:45:19.559Z,10.43
2019-01-30T06:47:45.726Z,11.07
2019-01-30T06:50:12.683Z,10.37
2019-01-30T06:52:38.847Z,11.70
2019-01-30T06:55:05.286Z,11.90
2019-01-30T06:57:31.495Z,10.00
2019-01-30T06:59:57.654Z,10.70
2019-01-30T07:02:32.053Z,10.57
2019-01-30T07:04:51.839Z,10.63
2019-01-30T07:07:17.976Z,10.50
2019-01-30T07:09:44.398Z,10.47
2019-01-30T07:12:10.552Z,10.90
2019-01-30T07:14:36.955Z,10.93
2019-01-30T07:17:03.184Z,13.05
2019-01-30T07:19:29.330Z,11.13
2019-01-30T07:21:55.503Z,11.00
2019-01-30T07:24:21.689Z,10.10
2019-01-30T07:26:47.835Z,9.20
2019-01-30T07:29:14.022Z,10.53
2019-01-30T07:31:40.173Z,9.73
2019-01-30T07:34:06.309Z,11.27
2019-01-30T07:36:32.694Z,8.97
2019-01-30T07:38:58.841Z,9.47
2019-01-30T07:41:24.987Z,10.27
2019-01-30T07:43:51.143Z,9.80
2019-01-30T07:46:17.323Z,10.57
2019-01-30T07:48:43.688Z,10.87
2019-01-30T07:51:09.838Z,11.53
2019-01-30T07:53:35.962Z,10.40
2019-01-30T07:56:02.115Z,11.20
2019-01-30T07:58:28.275Z,11.23
2019-01-30T08:00:54.452Z,11.17
2019-01-30T08:03:20.591Z,10.17
2019-01-30T08:05:47.400Z,10.73
2019-01-30T08:08:13.849Z,10.97
2019-01-30T08:10:40.007Z,10.77
2019-01-30T08:13:06.148Z,9.77
2019-01-30T08:15:32.569Z,10.30
2019-01-30T08:17:58.958Z,10.63
2019-01-30T08:20:25.112Z,11.07
2019-01-30T08:22:51.282Z,10.97
2019-01-30T08:25:19.217Z,10.00
2019-01-30T08:27:45.409Z,10.10
2019-01-30T08:30:22.613Z,11.13
2019-01-30T08:32:46.018Z,10.13
2019-01-30T08:35:12.731Z,11.47
2019-01-30T08:37:38.920Z,10.13
2019-01-30T08:40:07.584Z,11.60
2019-01-30T08:42:33.736Z,10.97
2019-01-30T08:44:59.872Z,11.27
2019-01-30T08:47:27.025Z,11.33
2019-01-30T08:49:53.512Z,11.13
2019-01-30T08:52:19.668Z,12.15
2019-01-30T08:54:45.803Z,11.93
2019-01-30T08:57:12.019Z,12.57
2019-01-30T08:59:38.161Z,10.73
2019-01-30T09:02:04.365Z,11.50
2019-01-30T09:04:30.503Z,10.07
2019-01-30T09:06:56.664Z,10.97
2019-01-30T09:09:23.077Z,12.30
2019-01-30T09:11:49.867Z,11.23
2019-01-30T09:14:16.259Z,10.83
2019-01-30T09:16:42.717Z,11.57
2019-01-30T09:19:08.900Z,11.23
2019-01-30T09:21:35.075Z,13.33
2019-01-30T09:24:01.280Z,17.05
2019-01-30T09:26:27.438Z,13.57
2019-01-30T09:28:53.864Z,12.87
2019-01-30T09:31:20.053Z,14.90
2019-01-30T09:33:46.241Z,14.57
2019-01-30T09:36:12.384Z,14.30
2019-01-30T09:38:38.577Z,15.23
2019-01-30T09:41:05.027Z,13.57
2019-01-30T09:43:31.439Z,16.33
2019-01-30T09:45:57.874Z,15.83
2019-01-30T09:48:24.090Z,16.00
2019-01-30T09:50:50.284Z,15.20
2019-01-30T09:53:16.499Z,16.40
2019-01-30T09:55:42.678Z,16.40
2019-01-30T09:58:08.855Z,16.47
2019-01-30T10:00:36.614Z,15.63
2019-01-30T10:03:02.874Z,15.47
2019-01-30T10:05:29.018Z,16.07
2019-01-30T10:07:55.503Z,16.57
2019-01-30T10:10:34.576Z,15.70
2019-01-30T10:13:00.914Z,15.73
2019-01-30T10:15:36.082Z,16.00
2019-01-30T10:18:02.259Z,15.97
2019-01-30T10:20:30.051Z,15.73
2019-01-30T10:22:56.206Z,17.57
2019-01-30T10:25:22.370Z,16.50
2019-01-30T10:27:49.526Z,16.70
2019-01-30T10:30:22.281Z,15.70
2019-01-30T10:32:48.443Z,15.77
2019-01-30T10:35:14.601Z,15.87
2019-01-30T10:37:40.767Z,15.20
2019-01-30T10:40:16.728Z,17.33
2019-01-30T10:42:42.878Z,18.67
2019-01-30T10:45:09.833Z,19.73
2019-01-30T10:47:35.980Z,23.47
2019-01-30T10:50:06.778Z,17.90
2019-01-30T10:52:33.219Z,21.20
2019-01-30T10:54:59.412Z,20.40
2019-01-30T10:57:25.896Z,25.47
2019-01-30T10:59:52.286Z,24.10
2019-01-30T11:02:18.446Z,21.47
2019-01-30T11:04:44.590Z,20.70
2019-01-30T11:07:10.776Z,21.30
2019-01-30T11:09:37.186Z,23.03
2019-01-30T11:12:04.358Z,22.23
2019-01-30T11:14:30.753Z,25.87
2019-01-30T11:16:57.126Z,23.40
2019-01-30T11:19:23.550Z,21.83
2019-01-30T11:21:49.708Z,23.63
2019-01-30T11:24:15.865Z,24.60
2019-01-30T11:26:42.363Z,26.00
2019-01-30T11:29:08.508Z,24.53
2019-01-30T11:31:34.662Z,22.73
2019-01-30T11:34:07.258Z,22.97
2019-01-30T11:36:28.876Z,22.60
2019-01-30T11:38:55.294Z,23.33
2019-01-30T11:41:21.455Z,21.30
2019-01-30T11:43:47.940Z,24.33
2019-01-30T11:46:14.093Z,23.27
2019-01-30T11:48:40.262Z,26.67
2019-01-30T11:51:06.876Z,27.23
2019-01-30T11:53:33.124Z,25.37
2019-01-30T11:55:59.278Z,26.33
2019-01-30T11:58:25.667Z,24.63
2019-01-30T12:00:56.511Z,25.17
2019-01-30T12:03:22.724Z,28.03
2019-01-30T12:05:48.888Z,26.30
2019-01-30T12:08:15.041Z,27.03
2019-01-30T12:10:41.192Z,24.77
2019-01-30T12:13:07.336Z,24.47
2019-01-30T12:15:33.574Z,24.77
2019-01-30T12:17:59.720Z,26.73
2019-01-30T12:20:25.903Z,26.80
2019-01-30T12:22:52.052Z,26.60
2019-01-30T12:25:19.768Z,27.03
2019-01-30T12:27:45.957Z,28.37
2019-01-30T12:30:25.305Z,28.80
2019-01-30T12:32:51.491Z,27.07
2019-01-30T12:35:17.627Z,28.43
2019-01-30T12:37:43.791Z,27.60
2019-01-30T12:40:15.067Z,27.07
2019-01-30T12:42:41.222Z,28.63
2019-01-30T12:45:11.294Z,29.60
2019-01-30T12:47:37.559Z,28.90
2019-01-30T12:50:07.514Z,28.67
2019-01-30T12:52:33.858Z,33.73
2019-01-30T12:55:00.011Z,28.63
2019-01-30T12:57:26.182Z,31.33
2019-01-30T12:59:52.347Z,29.60
2019-01-30T13:02:18.515Z,30.83
2019-01-30T13:04:44.698Z,29.07
2019-01-30T13:07:10.874Z,28.93
2019-01-30T13:09:37.118Z,30.03
2019-01-30T13:12:03.569Z,28.03
2019-01-30T13:14:30.003Z,29.20
2019-01-30T13:16:56.157Z,27.47
2019-01-30T13:19:22.306Z,29.60
2019-01-30T13:21:48.538Z,29.30
2019-01-30T13:24:14.678Z,28.43
2019-01-30T13:26:40.822Z,29.37
2019-01-30T13:29:06.979Z,27.17
2019-01-30T13:31:33.399Z,27.17
2019-01-30T13:33:59.546Z,26.27
2019-01-30T13:36:25.692Z,27.13
2019-01-30T13:38:52.848Z,30.73
2019-01-30T13:41:19.015Z,27.70
2019-01-30T13:43:45.183Z,26.40
2019-01-30T13:46:11.348Z,27.90
2019-01-30T13:48:37.531Z,28.87
2019-01-30T13:51:03.667Z,27.40
2019-01-30T13:53:29.850Z,29.40
2019-01-30T13:55:56.101Z,29.67
2019-01-30T13:58:22.329Z,30.33
2019-01-30T14:00:48.464Z,30.23
2019-01-30T14:03:14.793Z,30.43
2019-01-30T14:05:41.010Z,32.63
2019-01-30T14:08:07.162Z,31.73
2019-01-30T14:10:33.318Z,29.47
2019-01-30T14:12:59.519Z,31.43
2019-01-30T14:15:28.047Z,32.33
2019-01-30T14:17:54.239Z,31.60
2019-01-30T14:20:20.411Z,31.40
2019-01-30T14:22:46.611Z,30.57
2019-01-30T14:25:13.539Z,30.60
2019-01-30T14:27:39.725Z,32.10
2019-01-30T14:30:09.679Z,30.67
2019-01-30T14:32:35.827Z,33.93
2019-01-30T14:35:10.591Z,34.83
2019-01-30T14:37:30.779Z,37.33
2019-01-30T14:39:56.968Z,37.47
2019-01-30T14:42:23.234Z,37.37
2019-01-30T14:44:49.390Z,36.53
2019-01-30T14:47:15.636Z,39.17
2019-01-30T14:49:42.069Z,36.93
2019-01-30T14:52:08.309Z,39.27
2019-01-30T14:54:34.446Z,37.90
2019-01-30T14:57:00.660Z,33.17
2019-01-30T14:59:26.828Z,32.67
2019-01-30T15:01:54.294Z,33.53
2019-01-30T15:04:20.528Z,33.13
2019-01-30T15:06:46.658Z,32.87
2019-01-30T15:09:12.824Z,32.13
2019-01-30T15:11:39.351Z,32.10
2019-01-30T15:14:05.531Z,35.80
2019-01-30T15:16:31.748Z,33.50
2019-01-30T15:18:57.918Z,29.63
2019-01-30T15:21:24.332Z,30.83
2019-01-30T15:23:50.539Z,32.20
2019-01-30T15:26:16.690Z,30.17
2019-01-30T15:28:42.837Z,32.23
2019-01-30T15:31:09.245Z,29.90
2019-01-30T15:33:35.430Z,31.17
2019-01-30T15:36:01.603Z,30.30
2019-01-30T15:38:27.985Z,30.60
2019-01-30T15:40:54.155Z,31.50
2019-01-30T15:43:21.075Z,30.63
2019-01-30T15:45:47.227Z,34.47
2019-01-30T15:48:13.381Z,34.23
2019-01-30T15:50:40.651Z,33.87
2019-01-30T15:53:11.942Z,32.07
2019-01-30T15:55:38.103Z,33.30
2019-01-30T15:58:06.846Z,42.17
2019-01-30T16:00:41.962Z,36.40
2019-01-30T16:03:08.098Z,36.53
2019-01-30T16:05:44.146Z,37.80
2019-01-30T16:08:02.365Z,35.90
2019-01-30T16:10:28.779Z,40.63
2019-01-30T16:12:54.930Z,35.50
2019-01-30T16:15:24.299Z,38.83
2019-01-30T16:17:50.464Z,38.90
2019-01-30T16:20:16.635Z,39.57
2019-01-30T16:22:42.796Z,39.03
2019-01-30T16:25:10.732Z,41.33
2019-01-30T16:27:37.164Z,38.73
2019-01-30T16:30:12.856Z,45.53
2019-01-30T16:32:40.047Z,38.70
2019-01-30T16:35:10.003Z,43.37
2019-01-30T16:37:36.160Z,39.85
2019-01-30T16:40:05.226Z,56.85
2019-01-30T16:42:31.379Z,44.57
2019-01-30T16:44:57.551Z,39.10
2019-01-30T16:47:23.980Z,36.40
2019-01-30T16:49:50.131Z,36.60
2019-01-30T16:52:16.275Z,37.00
2019-01-30T16:54:42.436Z,35.47
2019-01-30T16:57:08.616Z,38.03
2019-01-30T16:59:34.787Z,36.60
2019-01-30T17:02:00.922Z,34.10
2019-01-30T17:04:27.344Z,33.73
2019-01-30T17:06:53.766Z,35.67
2019-01-30T17:09:19.932Z,41.23
2019-01-30T17:11:46.333Z,38.27
2019-01-30T17:14:12.562Z,37.90
2019-01-30T17:16:38.707Z,36.73
2019-01-30T17:19:04.895Z,36.63
2019-01-30T17:21:31.275Z,34.90
2019-01-30T17:23:57.654Z,36.10
2019-01-30T17:26:23.835Z,35.83
2019-01-30T17:28:49.999Z,36.40
2019-01-30T17:31:16.160Z,35.50
2019-01-30T17:33:42.317Z,37.00
2019-01-30T17:36:18.127Z,37.83
2019-01-30T17:38:36.561Z,38.97
2019-01-30T17:41:03.029Z,36.77
2019-01-30T17:43:29.179Z,35.80
2019-01-30T17:45:55.343Z,36.90
2019-01-30T17:48:21.511Z,34.93
2019-01-30T17:50:47.668Z,35.50
2019-01-30T17:53:13.816Z,34.53
2019-01-30T17:55:39.983Z,35.10
2019-01-30T17:58:06.127Z,34.90
2019-01-30T18:00:37.290Z,34.90
2019-01-30T18:03:03.679Z,36.17
2019-01-30T18:05:29.847Z,37.63
2019-01-30T18:07:56.233Z,39.40
2019-01-30T18:10:22.611Z,36.27
2019-01-30T18:12:48.999Z,39.23
2019-01-30T18:15:15.172Z,40.00
2019-01-30T18:17:41.563Z,37.63
2019-01-30T18:20:18.744Z,39.10
2019-01-30T18:22:45.913Z,38.23
2019-01-30T18:25:14.195Z,36.50
2019-01-30T18:27:40.360Z,39.30
2019-01-30T18:30:09.815Z,39.83
2019-01-30T18:32:37.228Z,38.73
2019-01-30T18:35:04.542Z,40.30
2019-01-30T18:37:30.686Z,39.90
2019-01-30T18:39:56.848Z,39.97
2019-01-30T18:42:23.027Z,38.47
2019-01-30T18:44:49.194Z,40.50
2019-01-30T18:47:15.356Z,41.43
2019-01-30T18:49:42.079Z,42.13
2019-01-30T18:52:08.390Z,39.70
2019-01-30T18:54:34.571Z,41.70
2019-01-30T18:57:00.973Z,43.10
2019-01-30T18:59:27.123Z,41.90
2019-01-30T19:01:53.542Z,45.13
2019-01-30T19:04:19.695Z,48.27
2019-01-30T19:06:52.401Z,49.53
2019-01-30T19:09:14.022Z,51.47
2019-01-30T19:11:40.192Z,49.67
2019-01-30T19:14:06.372Z,47.30
2019-01-30T19:16:32.531Z,43.63
2019-01-30T19:18:58.723Z,48.97
2019-01-30T19:21:24.876Z,50.27
2019-01-30T19:23:51.029Z,47.83
2019-01-30T19:26:17.195Z,50.03
2019-01-30T19:28:43.350Z,48.63
2019-01-30T19:31:09.782Z,48.27
2019-01-30T19:33:35.987Z,45.13
2019-01-30T19:36:03.899Z,45.50
2019-01-30T19:38:30.060Z,44.87
2019-01-30T19:40:56.260Z,42.67
2019-01-30T19:43:22.531Z,47.23
2019-01-30T19:45:48.727Z,46.00
2019-01-30T19:48:14.891Z,45.23
2019-01-30T19:50:41.104Z,45.77
2019-01-30T19:53:07.257Z,48.23
2019-01-30T19:55:33.406Z,45.27
2019-01-30T19:57:59.576Z,45.90
2019-01-30T20:00:31.364Z,46.40
2019-01-30T20:02:58.617Z,45.97
2019-01-30T20:05:24.822Z,47.20
2019-01-30T20:07:50.977Z,46.67
2019-01-30T20:10:25.786Z,47.27
2019-01-30T20:12:51.950Z,48.70
2019-01-30T20:15:18.139Z,50.23
2019-01-30T20:17:44.323Z,45.27
2019-01-30T20:20:13.283Z,45.80
2019-01-30T20:22:39.440Z,50.00
2019-01-30T20:25:25.763Z,49.47
2019-01-30T20:27:52.049Z,46.27
2019-01-30T20:30:22.717Z,47.17
2019-01-30T20:32:48.888Z,49.33
2019-01-30T20:35:15.063Z,45.40
2019-01-30T20:37:41.622Z,45.70
2019-01-30T20:40:11.471Z,43.93
2019-01-30T20:42:37.660Z,45.73
2019-01-30T20:45:07.491Z,43.10
2019-01-30T20:47:33.663Z,45.40
2019-01-30T20:50:00.289Z,42.87
2019-01-30T20:52:27.670Z,42.43
2019-01-30T20:54:59.883Z,41.60
2019-01-30T20:57:22.207Z,40.73
2019-01-30T20:59:51.064Z,40.83
2019-01-30T21:02:17.319Z,40.20
2019-01-30T21:04:43.504Z,40.17
2019-01-30T21:07:09.655Z,39.70
2019-01-30T21:09:35.830Z,38.87
2019-01-30T21:12:01.989Z,40.43
2019-01-30T21:14:28.411Z,36.63
2019-01-30T21:16:54.776Z,39.67
2019-01-30T21:19:21.198Z,38.47
2019-01-30T21:21:47.543Z,38.17
2019-01-30T21:24:13.984Z,43.03
2019-01-30T21:26:40.415Z,39.87
2019-01-30T21:29:06.608Z,39.10
2019-01-30T21:31:32.817Z,36.83
2019-01-30T21:33:58.992Z,38.60
2019-01-30T21:36:25.167Z,40.40
2019-01-30T21:38:51.549Z,42.20
2019-01-30T21:41:17.694Z,37.63
2019-01-30T21:43:44.126Z,39.30
2019-01-30T21:46:10.262Z,41.23
2019-01-30T21:48:36.837Z,40.00
2019-01-30T21:51:03.252Z,34.27
2019-01-30T21:53:29.406Z,37.07
2019-01-30T21:55:55.595Z,38.10
2019-01-30T21:58:21.759Z,37.60
2019-01-30T22:00:47.927Z,36.93
2019-01-30T22:03:14.079Z,39.43
2019-01-30T22:05:40.240Z,40.53
2019-01-30T22:08:06.425Z,39.33
2019-01-30T22:10:32.603Z,37.10
2019-01-30T22:12:59.013Z,36.00
2019-01-30T22:15:25.287Z,36.07
2019-01-30T22:17:51.474Z,35.17
2019-01-30T22:20:22.419Z,35.00
2019-01-30T22:22:48.655Z,33.67
2019-01-30T22:25:20.210Z,33.80
2019-01-30T22:27:44.955Z,32.50
2019-01-30T22:30:20.388Z,32.83
2019-01-30T22:32:46.561Z,33.47
2019-01-30T22:35:12.725Z,34.97
2019-01-30T22:37:38.872Z,33.80
2019-01-30T22:40:12.665Z,33.43
2019-01-30T22:42:39.088Z,32.73
2019-01-30T22:45:08.058Z,33.03
2019-01-30T22:47:34.281Z,33.67
2019-01-30T22:50:00.450Z,34.63
2019-01-30T22:52:26.591Z,34.93
2019-01-30T22:54:52.755Z,36.13
2019-01-30T22:57:18.921Z,37.50
2019-01-30T22:59:45.074Z,38.30
2019-01-30T23:02:11.490Z,39.93
2019-01-30T23:04:45.446Z,38.17
2019-01-30T23:07:15.275Z,37.10
2019-01-30T23:09:56.810Z,36.83
2019-01-30T23:12:26.887Z,36.13
2019-01-30T23:14:59.511Z,33.33
2019-01-30T23:17:54.559Z,35.07
2019-01-30T23:20:22.681Z,33.87
2019-01-30T23:22:58.603Z,31.70
2019-01-30T23:25:28.548Z,34.17
2019-01-30T23:27:58.514Z,32.90
2019-01-30T23:30:43.559Z,31.77
2019-01-30T23:33:20.339Z,31.60
2019-01-30T23:36:02.177Z,32.13
2019-01-30T23:38:34.460Z,30.63
2019-01-30T23:41:09.523Z,33.07
2019-01-30T23:43:57.463Z,33.23
2019-01-30T23:46:30.338Z,33.27
2019-01-30T23:49:33.761Z,32.77
2019-01-30T23:52:06.538Z,30.03
2019-01-30T23:54:39.254Z,29.20
2019-01-30T23:57:17.862Z,28.57
2019-01-30T23:59:56.766Z,29.57
